Time;durP1;ratioP1;P1;durP2;ratioP2;P2;SDS_P1;SDS_P2;PMS_P1;PMS_P2;Temp;Humidity;BMP_temperature;BMP_pressure;BME280_temperature;BME280_humidity;BME280_pressure;Samples;Min_cycle;Max_cycle;Signal;HPM_P1;HPM_P2
2023/04/22 00:01:42;;;;;;;55.03;38.33;;;;;;;7.03;nan;100740.97;4992885;28;20038;-42
2023/04/22 00:04:07;;;;;;;54.65;38.90;;;;;;;6.93;nan;100742.88;4992332;28;20030;-42
2023/04/22 00:06:33;;;;;;;53.03;37.47;;;;;;;6.57;nan;100676.41;4973664;28;20038;-42
2023/04/22 00:08:59;;;;;;;60.75;40.85;;;;;;;6.94;nan;100746.38;4975098;28;20135;-42
2023/04/22 00:11:25;;;;;;;52.70;38.90;;;;;;;6.48;nan;100676.59;4992760;28;20030;-43
2023/04/22 00:13:50;;;;;;;56.83;40.00;;;;;;;6.84;nan;100745.66;4992818;28;20035;-39
2023/04/22 00:16:15;;;;;;;57.50;39.10;;;;;;;6.39;nan;100670.69;4974995;28;20048;-41
2023/04/22 00:18:41;;;;;;;56.17;40.10;;;;;;;6.41;nan;100688.06;4991797;28;20038;-42
2023/04/22 00:21:06;;;;;;;56.90;40.22;;;;;;;6.13;nan;100644.97;4990949;28;20037;-40
2023/04/22 00:23:32;;;;;;;61.63;42.75;;;;;;;6.51;nan;100699.22;4990737;28;20125;-40
2023/04/22 00:25:57;;;;;;;63.78;43.42;;;;;;;6.78;nan;100745.78;4992612;28;20041;-40
2023/04/22 00:28:22;;;;;;;65.78;41.53;;;;;;;6.77;nan;100744.09;4991494;28;20380;-43
2023/04/22 00:30:48;;;;;;;61.30;44.22;;;;;;;6.74;nan;100760.66;4991763;28;20038;-41
2023/04/22 00:33:13;;;;;;;63.92;43.58;;;;;;;6.65;nan;100739.94;4986568;28;20038;-42
2023/04/22 00:35:38;;;;;;;65.28;43.90;;;;;;;6.61;nan;100740.88;4990260;28;20088;-40
2023/04/22 00:38:04;;;;;;;68.63;44.22;;;;;;;6.56;nan;100740.09;4991284;28;20462;-40
2023/04/22 00:40:29;;;;;;;65.50;43.88;;;;;;;6.53;nan;100749.75;4957516;28;20038;-42
2023/04/22 00:42:55;;;;;;;67.18;45.88;;;;;;;6.49;nan;100740.22;4992338;28;20034;-42
2023/04/22 00:45:21;;;;;;;65.60;43.97;;;;;;;6.10;nan;100681.66;4992440;28;20086;-41
2023/04/22 00:47:47;;;;;;;69.28;46.45;;;;;;;6.42;nan;100752.50;4991598;28;20038;-40
2023/04/22 00:50:12;;;;;;;71.53;42.58;;;;;;;6.35;nan;100742.19;4991519;28;20291;-44
2023/04/22 00:52:37;;;;;;;65.88;43.42;;;;;;;5.90;nan;100679.34;4992236;28;20022;-43
2023/04/22 00:55:03;;;;;;;68.32;44.20;;;;;;;5.90;nan;100681.94;4992447;28;20445;-42
2023/04/22 00:57:30;;;;;;;72.65;45.50;;;;;;;6.21;nan;100752.88;4974969;28;20039;-39
2023/04/22 00:59:55;;;;;;;74.30;47.58;;;;;;;6.22;nan;100752.84;4975034;28;20386;-39
2023/04/22 01:02:21;;;;;;;71.68;46.25;;;;;;;6.16;nan;100758.16;4991372;28;20030;-39
2023/04/22 01:04:46;;;;;;;82.57;47.35;;;;;;;6.10;nan;100746.97;4992537;28;20045;-39
2023/04/22 01:07:11;;;;;;;82.60;48.67;;;;;;;6.10;nan;100749.59;4993215;28;20058;-42
2023/04/22 01:09:38;;;;;;;79.30;47.75;;;;;;;5.86;nan;100718.59;4993607;28;20144;-39
2023/04/22 01:12:04;;;;;;;73.00;46.90;;;;;;;5.98;nan;100745.38;4995679;28;20393;-40
2023/04/22 01:14:30;;;;;;;77.38;48.88;;;;;;;6.00;nan;100754.09;4995451;28;20034;-43
2023/04/22 01:16:56;;;;;;;72.32;47.15;;;;;;;5.63;nan;100698.03;4977760;28;20117;-40
2023/04/22 01:19:22;;;;;;;75.55;48.10;;;;;;;5.64;nan;100713.66;4993765;28;20041;-40
2023/04/22 01:21:49;;;;;;;85.45;49.80;;;;;;;5.77;nan;100743.06;4978075;28;20045;-41
2023/04/22 01:24:15;;;;;;;79.88;49.08;;;;;;;5.53;nan;100712.94;4994649;28;20080;-39
2023/04/22 01:26:41;;;;;;;81.05;48.83;;;;;;;5.79;nan;100750.88;4976884;28;20474;-39
2023/04/22 01:29:06;;;;;;;82.25;50.05;;;;;;;5.78;nan;100749.16;4983707;28;20506;-41
2023/04/22 01:31:32;;;;;;;87.53;52.95;;;;;;;5.69;nan;100729.28;4994193;28;20046;-42
2023/04/22 01:33:58;;;;;;;84.47;52.17;;;;;;;5.68;nan;100736.25;5010432;28;20477;-41
2023/04/22 01:36:24;;;;;;;82.00;51.67;;;;;;;5.77;nan;100747.44;4993995;28;20034;-42
2023/04/22 01:38:49;;;;;;;96.22;54.20;;;;;;;5.66;nan;100745.81;4995105;28;20057;-43
2023/04/22 01:41:15;;;;;;;88.30;51.40;;;;;;;5.33;nan;100674.94;4994596;28;20046;-40
2023/04/22 01:43:41;;;;;;;87.90;53.75;;;;;;;5.67;nan;100744.94;4995201;28;20117;-39
2023/04/22 01:46:07;;;;;;;101.38;55.15;;;;;;;5.24;nan;100670.72;4993696;28;20034;-41
2023/04/22 01:48:33;;;;;;;105.47;56.83;;;;;;;5.62;nan;100738.06;5010033;28;20512;-41
2023/04/22 01:50:59;;;;;;;110.28;57.13;;;;;;;5.18;nan;100668.19;5007974;28;20034;-41
2023/04/22 01:53:24;;;;;;;95.93;54.55;;;;;;;5.53;nan;100743.41;4994930;28;20493;-40
2023/04/22 01:55:49;;;;;;;98.53;54.28;;;;;;;5.47;nan;100733.91;4992564;28;20073;-40
2023/04/22 01:58:15;;;;;;;115.53;56.13;;;;;;;5.48;nan;100743.47;4994912;28;20089;-39
2023/04/22 02:00:40;;;;;;;115.63;57.92;;;;;;;5.41;nan;100743.56;4994724;28;20042;-43
2023/04/22 02:03:06;;;;;;;107.78;57.97;;;;;;;5.31;nan;100732.38;4994612;28;20030;-40
2023/04/22 02:05:31;;;;;;;107.18;56.22;;;;;;;5.01;nan;100680.59;4994502;28;20038;-42
2023/04/22 02:07:56;;;;;;;109.53;56.92;;;;;;;4.96;nan;100679.78;4991915;28;20402;-39
2023/04/22 02:10:22;;;;;;;97.28;55.53;;;;;;;5.30;nan;100741.09;4994992;28;20069;-40
2023/04/22 02:12:47;;;;;;;100.30;56.15;;;;;;;4.38;nan;100580.50;4993670;28;20066;-42
2023/04/22 02:15:13;;;;;;;123.57;60.08;;;;;;;5.26;nan;100736.78;4993527;28;20038;-43
2023/04/22 02:17:42;;;;;;;112.90;60.75;;;;;;;5.24;nan;100730.75;4993179;28;20409;-41
2023/04/22 02:20:11;;;;;;;114.78;59.92;;;;;;;5.18;nan;100732.56;4993976;28;20026;-40
2023/04/22 02:22:37;;;;;;;120.25;60.83;;;;;;;5.22;nan;100737.72;4993284;28;20045;-40
2023/04/22 02:25:03;;;;;;;122.07;61.67;;;;;;;5.21;nan;100738.59;4993600;28;20170;-40
2023/04/22 02:27:29;;;;;;;125.38;65.07;;;;;;;5.21;nan;100736.00;4992321;28;20034;-42
2023/04/22 02:29:54;;;;;;;113.68;63.33;;;;;;;5.22;nan;100740.34;4994141;28;20450;-42
2023/04/22 02:32:19;;;;;;;122.05;63.97;;;;;;;4.86;nan;100679.03;4993335;28;20092;-42
2023/04/22 02:34:46;;;;;;;134.73;66.93;;;;;;;5.19;nan;100735.16;4993936;28;20486;-43
2023/04/22 02:37:11;;;;;;;118.15;63.10;;;;;;;5.21;nan;100732.50;4976498;28;20038;-41
2023/04/22 02:39:36;;;;;;;132.10;66.32;;;;;;;5.21;nan;100735.13;4976563;28;20040;-38
2023/04/22 02:42:02;;;;;;;160.70;72.72;;;;;;;5.27;nan;100730.69;4993244;28;20494;-42
2023/04/22 02:44:27;;;;;;;138.57;71.32;;;;;;;5.31;nan;100726.31;4991646;28;20482;-42
2023/04/22 02:46:52;;;;;;;141.80;74.97;;;;;;;4.88;nan;100645.97;4993738;28;20054;-41
2023/04/22 02:49:18;;;;;;;140.35;72.57;;;;;;;5.40;nan;100720.97;4993022;28;20041;-39
2023/04/22 02:51:43;;;;;;;174.55;77.90;;;;;;;5.44;nan;100733.09;4993777;28;20100;-42
2023/04/22 02:54:08;;;;;;;138.88;70.25;;;;;;;5.46;nan;100719.13;4993564;28;20043;-43
2023/04/22 02:56:35;;;;;;;142.52;71.47;;;;;;;5.47;nan;100720.00;4976507;28;20117;-42
2023/04/22 02:59:00;;;;;;;134.55;73.43;;;;;;;5.05;nan;100649.22;4991765;28;20045;-43
2023/04/22 03:01:25;;;;;;;156.20;76.80;;;;;;;5.11;nan;100659.56;4991715;28;20034;-41
2023/04/22 03:03:51;;;;;;;148.30;73.40;;;;;;;5.49;nan;100708.63;4993205;28;20080;-39
2023/04/22 03:06:16;;;;;;;143.85;72.38;;;;;;;5.51;nan;100711.25;4992665;28;20500;-41
2023/04/22 03:08:42;;;;;;;153.75;72.55;;;;;;;5.54;nan;100709.47;4975844;28;20390;-42
2023/04/22 03:11:07;;;;;;;147.15;73.15;;;;;;;5.59;nan;100705.03;4993746;28;20046;-42
2023/04/22 03:13:32;;;;;;;150.55;71.35;;;;;;;4.74;nan;100569.66;4992173;28;20065;-40
2023/04/22 03:15:58;;;;;;;142.88;73.80;;;;;;;5.68;nan;100688.38;4992355;28;20045;-42
2023/04/22 03:18:23;;;;;;;142.90;72.95;;;;;;;5.70;nan;100691.81;4992988;28;20034;-44
2023/04/22 03:20:49;;;;;;;151.07;72.15;;;;;;;5.75;nan;100697.81;4993473;28;20026;-40
2023/04/22 03:23:14;;;;;;;155.98;71.88;;;;;;;5.36;nan;100627.94;4992419;28;20041;-40
2023/04/22 03:25:40;;;;;;;144.75;72.10;;;;;;;5.64;nan;100684.94;4975759;28;20033;-40
2023/04/22 03:28:05;;;;;;;167.75;76.18;;;;;;;5.65;nan;100684.06;4992983;28;20386;-40
2023/04/22 03:30:30;;;;;;;158.80;76.65;;;;;;;5.74;nan;100687.41;4990823;28;20061;-44
2023/04/22 03:32:56;;;;;;;137.98;70.60;;;;;;;5.68;nan;100675.31;4992132;28;20116;-40
2023/04/22 03:35:22;;;;;;;141.43;71.03;;;;;;;5.79;nan;100693.41;4991699;28;20540;-39
2023/04/22 03:37:47;;;;;;;151.95;71.88;;;;;;;5.81;nan;100679.44;4992912;28;20050;-41
2023/04/22 03:40:12;;;;;;;193.98;79.35;;;;;;;5.81;nan;100676.84;4992425;28;20054;-40
2023/04/22 03:42:38;;;;;;;149.02;73.03;;;;;;;5.42;nan;100604.34;4993135;28;20030;-41
2023/04/22 03:45:04;;;;;;;172.98;76.20;;;;;;;5.78;nan;100661.19;4992793;28;20034;-39
2023/04/22 03:47:29;;;;;;;214.10;79.68;;;;;;;5.46;nan;100604.25;4991028;28;20046;-40
2023/04/22 03:49:54;;;;;;;172.30;75.30;;;;;;;5.47;nan;100599.91;4990773;28;20398;-40
2023/04/22 03:52:20;;;;;;;187.45;75.88;;;;;;;5.84;nan;100663.72;4991781;28;20033;-42
2023/04/22 03:54:45;;;;;;;180.90;76.53;;;;;;;5.77;nan;100656.88;4991633;28;20065;-41
2023/04/22 03:57:10;;;;;;;144.98;71.47;;;;;;;5.82;nan;100654.19;5007886;28;20026;-41
2023/04/22 03:59:36;;;;;;;155.60;73.90;;;;;;;5.41;nan;100590.44;4992774;28;20117;-42
2023/04/22 04:02:01;;;;;;;151.55;72.38;;;;;;;5.80;nan;100645.53;4992761;28;20043;-40
2023/04/22 04:04:29;;;;;;;135.55;69.22;;;;;;;5.41;nan;100585.22;4990583;28;20041;-39
2023/04/22 04:06:55;;;;;;;144.80;70.38;;;;;;;5.90;nan;100662.78;4992998;28;20121;-39
2023/04/22 04:09:20;;;;;;;140.38;71.88;;;;;;;5.46;nan;100578.16;4992197;28;20125;-39
2023/04/22 04:11:46;;;;;;;133.70;67.82;;;;;;;5.56;nan;100586.72;4990816;28;20465;-43
2023/04/22 04:14:11;;;;;;;147.15;71.30;;;;;;;5.92;nan;100650.59;4991928;28;20043;-39
2023/04/22 04:16:36;;;;;;;143.57;70.50;;;;;;;5.92;nan;100647.97;4992430;28;20070;-42
2023/04/22 04:19:02;;;;;;;142.00;68.78;;;;;;;5.59;nan;100595.38;4991478;28;20074;-40
2023/04/22 04:21:28;;;;;;;131.27;67.07;;;;;;;5.84;nan;100637.59;4975390;28;20026;-41
2023/04/22 04:23:53;;;;;;;135.23;69.95;;;;;;;5.86;nan;100638.50;4991786;28;20490;-41
2023/04/22 04:26:19;;;;;;;130.18;66.82;;;;;;;5.93;nan;100637.50;4991676;28;20061;-39
2023/04/22 04:28:44;;;;;;;138.82;68.28;;;;;;;5.88;nan;100635.84;4992488;28;20043;-43
2023/04/22 04:31:10;;;;;;;147.20;69.45;;;;;;;5.84;nan;100632.38;4992188;28;20125;-42
2023/04/22 04:33:35;;;;;;;121.88;64.55;;;;;;;5.52;nan;100591.13;4992133;28;20030;-46
2023/04/22 04:36:01;;;;;;;137.85;66.93;;;;;;;5.58;nan;100613.66;4992520;28;20041;-40
2023/04/22 04:38:27;;;;;;;135.30;67.93;;;;;;;5.74;nan;100641.28;4974268;28;20073;-42
2023/04/22 04:40:53;;;;;;;134.43;65.85;;;;;;;5.39;nan;100570.47;4995186;28;20426;-41
2023/04/22 04:43:19;;;;;;;132.30;65.80;;;;;;;5.73;nan;100636.06;4995016;28;20121;-43
2023/04/22 04:45:45;;;;;;;130.48;65.90;;;;;;;5.69;nan;100622.22;4995929;28;20049;-40
2023/04/22 04:48:15;;;;;;;134.82;66.53;;;;;;;5.64;nan;100622.25;4978460;28;20045;-41
2023/04/22 04:50:41;;;;;;;123.53;64.28;;;;;;;5.44;nan;100579.06;4995004;28;20038;-41
2023/04/22 04:53:07;;;;;;;137.30;68.05;;;;;;;5.45;nan;100580.81;4978588;28;20070;-39
2023/04/22 04:55:32;;;;;;;135.07;66.65;;;;;;;5.55;nan;100590.19;4961499;28;20116;-42
2023/04/22 04:57:57;;;;;;;125.38;65.10;;;;;;;5.54;nan;100584.16;4977867;28;20478;-42
2023/04/22 05:00:23;;;;;;;111.07;60.05;;;;;;;5.86;nan;100630.66;4994612;28;20038;-40
2023/04/22 05:02:48;;;;;;;128.32;66.10;;;;;;;5.90;nan;100627.09;4994532;28;20046;-40
2023/04/22 05:05:13;;;;;;;136.75;67.82;;;;;;;5.59;nan;100568.38;4961436;28;20050;-41
2023/04/22 05:07:39;;;;;;;124.70;64.53;;;;;;;5.27;nan;100502.78;4995813;28;20035;-41
2023/04/22 05:10:05;;;;;;;139.50;68.65;;;;;;;5.94;nan;100601.78;4978364;28;20058;-39
2023/04/22 05:12:30;;;;;;;140.55;69.15;;;;;;;5.72;nan;100556.00;4995380;28;20070;-40
2023/04/22 05:14:55;;;;;;;136.07;68.28;;;;;;;5.78;nan;100561.13;4994941;28;20133;-42
2023/04/22 05:17:21;;;;;;;140.20;68.03;;;;;;;6.14;nan;100625.81;4994765;28;20489;-41
2023/04/22 05:19:46;;;;;;;142.85;68.72;;;;;;;6.17;nan;100617.91;4994623;28;20054;-40
2023/04/22 05:22:11;;;;;;;126.45;66.55;;;;;;;6.22;nan;100630.00;4978035;28;20405;-40
2023/04/22 05:24:37;;;;;;;135.68;66.68;;;;;;;6.27;nan;100640.41;4995306;28;20121;-41
2023/04/22 05:27:02;;;;;;;128.60;68.05;;;;;;;6.31;nan;100646.41;4994667;28;20117;-42
2023/04/22 05:29:27;;;;;;;124.28;66.38;;;;;;;5.98;nan;100582.56;4994423;28;20145;-40
2023/04/22 05:31:53;;;;;;;135.43;68.25;;;;;;;6.41;nan;100640.13;4995119;28;20578;-42
2023/04/22 05:34:18;;;;;;;126.25;64.85;;;;;;;6.15;nan;100593.56;4995141;28;20034;-41
2023/04/22 05:36:44;;;;;;;112.30;64.28;;;;;;;6.52;nan;100662.56;4994105;28;20058;-42
2023/04/22 05:39:09;;;;;;;122.53;67.65;;;;;;;6.58;nan;100652.00;4995148;28;20052;-41
2023/04/22 05:41:35;;;;;;;122.68;66.80;;;;;;;6.62;nan;100643.22;4995115;28;20124;-44
2023/04/22 05:44:00;;;;;;;135.93;68.00;;;;;;;6.67;nan;100651.84;4994309;28;20467;-42
2023/04/22 05:46:25;;;;;;;122.65;66.20;;;;;;;6.74;nan;100648.19;4994896;28;20031;-40
2023/04/22 05:48:51;;;;;;;117.72;66.13;;;;;;;6.82;nan;100655.91;4976627;28;20034;-42
2023/04/22 05:51:16;;;;;;;108.55;63.38;;;;;;;6.86;nan;100659.31;4977622;28;20042;-42
2023/04/22 05:53:41;;;;;;;108.15;62.63;;;;;;;6.58;nan;100594.47;4976626;28;20050;-42
2023/04/22 05:56:07;;;;;;;102.78;61.80;;;;;;;7.04;nan;100649.31;4994776;28;20038;-39
2023/04/22 05:58:32;;;;;;;100.90;59.95;;;;;;;7.11;nan;100656.16;4994648;28;20038;-41
2023/04/22 06:00:57;;;;;;;97.28;58.40;;;;;;;7.19;nan;100638.53;4993415;28;20117;-41
2023/04/22 06:03:23;;;;;;;95.40;59.17;;;;;;;6.92;nan;100581.53;4994504;28;20030;-42
2023/04/22 06:05:48;;;;;;;87.63;57.22;;;;;;;7.21;nan;100609.69;4993713;28;20034;-41
2023/04/22 06:08:14;;;;;;;91.15;58.03;;;;;;;7.40;nan;100621.47;4993558;28;20049;-41
2023/04/22 06:10:39;;;;;;;84.68;56.47;;;;;;;7.46;nan;100615.25;4993022;28;20397;-39
2023/04/22 06:13:05;;;;;;;91.18;57.80;;;;;;;7.43;nan;100608.31;4994586;28;20506;-39
2023/04/22 06:15:30;;;;;;;81.50;55.58;;;;;;;7.56;nan;100607.13;4992375;28;20119;-40
2023/04/22 06:17:55;;;;;;;82.35;54.47;;;;;;;7.34;nan;100558.78;4960378;28;20126;-42
2023/04/22 06:20:21;;;;;;;86.68;57.90;;;;;;;7.65;nan;100595.56;4993539;28;20034;-42
2023/04/22 06:22:46;;;;;;;86.45;55.58;;;;;;;7.81;nan;100623.13;4993187;28;20022;-42
2023/04/22 06:25:11;;;;;;;77.72;52.90;;;;;;;7.87;nan;100613.38;4994437;28;20038;-40
2023/04/22 06:27:37;;;;;;;77.88;53.90;;;;;;;7.93;nan;100607.97;4993189;28;20049;-41
2023/04/22 06:30:03;;;;;;;82.18;57.63;;;;;;;7.67;nan;100551.88;4993742;28;20061;-42
2023/04/22 06:32:29;;;;;;;76.53;52.03;;;;;;;8.12;nan;100595.22;4994238;28;20038;-43
2023/04/22 06:34:54;;;;;;;72.85;51.38;;;;;;;8.31;nan;100609.63;4992972;28;20493;-41
2023/04/22 06:37:19;;;;;;;69.82;49.00;;;;;;;8.27;nan;100599.22;4993143;28;20128;-39
2023/04/22 06:39:45;;;;;;;63.63;48.53;;;;;;;8.32;nan;100600.84;4994142;28;20053;-40
2023/04/22 06:42:10;;;;;;;72.97;48.97;;;;;;;8.12;nan;100553.28;4993318;28;20046;-39
2023/04/22 06:44:35;;;;;;;69.65;50.78;;;;;;;8.41;nan;100594.47;4975739;28;20046;-42
2023/04/22 06:47:01;;;;;;;67.65;49.88;;;;;;;8.52;nan;100597.69;4992700;28;20064;-39
2023/04/22 06:49:26;;;;;;;65.85;48.15;;;;;;;8.60;nan;100597.47;4993743;28;20133;-40
2023/04/22 06:51:51;;;;;;;59.72;46.05;;;;;;;8.72;nan;100605.00;4993335;28;20121;-40
2023/04/22 06:54:17;;;;;;;57.95;45.40;;;;;;;8.86;nan;100590.56;4993165;28;20075;-45
2023/04/22 06:56:42;;;;;;;58.75;45.83;;;;;;;8.98;nan;100591.97;4993525;28;20044;-40
2023/04/22 06:59:07;;;;;;;58.35;44.50;;;;;;;8.99;nan;100576.16;4992906;28;20042;-41
2023/04/22 07:01:33;;;;;;;51.08;41.28;;;;;;;9.20;nan;100586.91;4992003;28;20040;-39
2023/04/22 07:03:58;;;;;;;43.53;38.63;;;;;;;9.26;nan;100579.72;4993360;28;20045;-42
2023/04/22 07:06:24;;;;;;;45.40;39.80;;;;;;;9.01;nan;100524.50;4975302;28;20038;-42
2023/04/22 07:08:49;;;;;;;43.50;38.05;;;;;;;9.50;nan;100578.09;4975210;28;20462;-39
2023/04/22 07:11:14;;;;;;;42.50;37.55;;;;;;;9.27;nan;100526.28;4975441;28;20046;-43
2023/04/22 07:13:40;;;;;;;41.75;36.70;;;;;;;9.79;nan;100566.63;4993364;28;20046;-43
2023/04/22 07:16:05;;;;;;;39.92;35.60;;;;;;;9.65;nan;100511.03;4992038;28;20481;-42
2023/04/22 07:18:30;;;;;;;39.03;34.78;;;;;;;10.11;nan;100575.16;4993326;28;20049;-42
2023/04/22 07:20:56;;;;;;;37.35;33.28;;;;;;;10.35;nan;100580.50;4992813;28;20065;-42
2023/04/22 07:23:21;;;;;;;34.60;30.92;;;;;;;10.54;nan;100569.25;4992460;28;20110;-43
2023/04/22 07:25:47;;;;;;;32.22;29.13;;;;;;;10.82;nan;100570.88;4991000;28;20045;-39
2023/04/22 07:28:12;;;;;;;27.00;24.50;;;;;;;11.10;nan;100577.66;4975862;28;20125;-43
2023/04/22 07:30:37;;;;;;;30.27;27.25;;;;;;;11.14;nan;100512.53;4992841;28;20137;-43
2023/04/22 07:33:03;;;;;;;28.10;25.15;;;;;;;11.44;nan;100527.09;4992983;28;20045;-44
2023/04/22 07:35:29;;;;;;;26.98;24.38;;;;;;;12.18;nan;100587.28;4992173;28;20057;-42
2023/04/22 07:37:55;;;;;;;25.58;23.17;;;;;;;12.22;nan;100541.38;4993178;28;20034;-42
2023/04/22 07:40:20;;;;;;;21.90;19.90;;;;;;;12.41;nan;100549.34;4993024;28;20029;-40
2023/04/22 07:42:45;;;;;;;22.08;19.98;;;;;;;12.58;nan;100628.66;4992204;28;20093;-40
2023/04/22 07:45:11;;;;;;;22.15;20.15;;;;;;;12.45;nan;100624.84;4992638;28;20038;-42
2023/04/22 07:47:37;;;;;;;21.38;19.38;;;;;;;12.29;nan;100606.16;4958362;28;20371;-40
2023/04/22 07:50:02;;;;;;;23.50;21.15;;;;;;;12.36;nan;100602.34;4990420;28;20038;-42
2023/04/22 07:52:28;;;;;;;22.08;19.88;;;;;;;12.68;nan;100616.78;4992869;28;20497;-43
2023/04/22 07:54:54;;;;;;;21.13;19.23;;;;;;;13.32;nan;100611.22;4992826;28;20026;-42
2023/04/22 07:57:21;;;;;;;18.48;16.88;;;;;;;14.01;nan;100613.06;4991986;28;20061;-41
2023/04/22 07:59:46;;;;;;;18.30;16.67;;;;;;;14.41;nan;100622.53;4992686;28;20249;-41
2023/04/22 08:02:12;;;;;;;16.38;14.88;;;;;;;14.43;nan;100551.81;4992902;28;20077;-44
2023/04/22 08:04:37;;;;;;;16.20;14.77;;;;;;;15.13;nan;100588.63;4992885;28;20472;-41
2023/04/22 08:07:02;;;;;;;15.77;14.43;;;;;;;15.23;nan;100564.25;4990955;28;20406;-42
2023/04/22 08:09:28;;;;;;;15.52;14.23;;;;;;;15.59;nan;100562.19;4992824;28;20039;-41
2023/04/22 08:11:53;;;;;;;14.85;13.52;;;;;;;15.38;nan;100544.84;4972766;28;20382;-40
2023/04/22 08:14:19;;;;;;;14.52;13.23;;;;;;;15.03;nan;100582.09;4994556;28;20405;-41
2023/04/22 08:16:44;;;;;;;14.88;13.57;;;;;;;14.92;nan;100589.78;4996291;28;20035;-42
2023/04/22 08:19:09;;;;;;;13.93;12.70;;;;;;;14.97;nan;100593.03;4996295;28;20044;-39
2023/04/22 08:21:36;;;;;;;13.20;12.00;;;;;;;14.60;nan;100591.50;4995438;28;20474;-43
2023/04/22 08:24:01;;;;;;;14.40;13.00;;;;;;;14.39;nan;100583.84;4994390;28;20062;-42
2023/04/22 08:26:26;;;;;;;15.25;13.85;;;;;;;14.08;nan;100595.97;4979023;28;20030;-42
2023/04/22 08:28:52;;;;;;;15.40;14.10;;;;;;;13.93;nan;100602.03;4978551;28;20057;-43
2023/04/22 08:31:17;;;;;;;16.42;14.73;;;;;;;13.49;nan;100535.44;4977996;28;20038;-43
2023/04/22 08:33:42;;;;;;;17.88;16.08;;;;;;;13.62;nan;100506.63;4995224;28;20054;-39
2023/04/22 08:36:09;;;;;;;15.65;14.25;;;;;;;14.15;nan;100601.81;4994666;28;20100;-41
2023/04/22 08:38:35;;;;;;;15.93;14.52;;;;;;;14.39;nan;100576.72;4993248;28;20117;-40
2023/04/22 08:41:00;;;;;;;14.60;13.27;;;;;;;14.53;nan;100538.94;4993881;28;20133;-40
2023/04/22 08:43:26;;;;;;;14.55;13.18;;;;;;;15.34;nan;100591.03;4976781;28;20038;-41
2023/04/22 08:45:52;;;;;;;15.65;14.15;;;;;;;15.91;nan;100589.53;4994699;28;20117;-40
2023/04/22 08:48:20;;;;;;;12.20;11.20;;;;;;;16.39;nan;100604.38;4977143;28;20433;-41
2023/04/22 08:50:47;;;;;;;12.68;11.60;;;;;;;16.63;nan;100540.00;4974672;28;20725;-40
2023/04/22 08:53:13;;;;;;;9.80;9.00;;;;;;;17.16;nan;100603.09;4992990;28;20030;-42
2023/04/22 08:55:42;;;;;;;12.05;10.85;;;;;;;17.24;nan;100592.84;4991696;28;20045;-41
2023/04/22 08:58:09;;;;;;;11.07;10.02;;;;;;;17.49;nan;100583.28;4992049;28;20561;-44
2023/04/22 09:00:35;;;;;;;10.18;9.38;;;;;;;17.84;nan;100536.59;4977170;28;20034;-42
2023/04/22 09:03:01;;;;;;;9.27;8.48;;;;;;;17.69;nan;100525.16;4977295;28;20481;-44
2023/04/22 09:05:32;;;;;;;9.18;8.38;;;;;;;18.00;nan;100563.91;4976968;28;20034;-43
2023/04/22 09:07:57;;;;;;;6.87;6.30;;;;;;;17.91;nan;100479.31;4994623;28;20026;-41
2023/04/22 09:10:22;;;;;;;7.80;7.20;;;;;;;18.91;nan;100600.25;4976775;28;20500;-42
2023/04/22 09:12:48;;;;;;;8.90;8.10;;;;;;;18.33;nan;100540.28;4990990;28;20040;-40
2023/04/22 09:15:13;;;;;;;8.65;7.95;;;;;;;18.83;nan;100579.44;4990698;28;20057;-43
2023/04/22 09:17:40;;;;;;;7.68;6.97;;;;;;;18.20;nan;100531.44;4991836;28;20089;-44
2023/04/22 09:20:07;;;;;;;8.02;7.28;;;;;;;17.77;nan;100569.91;4993460;28;20039;-45
2023/04/22 09:22:37;;;;;;;7.70;7.10;;;;;;;17.03;nan;100509.09;4989568;28;20113;-41
2023/04/22 09:25:03;;;;;;;10.35;8.35;;;;;;;16.63;nan;100544.47;4991514;28;20097;-41
2023/04/22 09:27:29;;;;;;;7.38;6.10;;;;;;;15.67;nan;100485.69;4991507;28;20040;-40
2023/04/22 09:29:54;;;;;;;7.50;6.65;;;;;;;15.54;nan;100500.59;4993678;28;20438;-43
2023/04/22 09:32:23;;;;;;;8.23;7.53;;;;;;;15.61;nan;100536.44;4942729;28;1102413;-45
2023/04/22 09:34:50;;;;;;;8.50;7.68;;;;;;;14.69;nan;100457.69;4958705;28;20042;-42
2023/04/22 09:37:25;;;;;;;9.07;8.18;;;;;;;14.65;nan;100475.56;4974659;28;20053;-41
2023/04/22 09:39:52;;;;;;;7.88;7.18;;;;;;;14.84;nan;100549.59;4973706;28;20518;-44
2023/04/22 09:42:18;;;;;;;7.75;7.05;;;;;;;14.65;nan;100552.38;4975582;28;20074;-41
2023/04/22 09:44:45;;;;;;;7.18;6.53;;;;;;;14.40;nan;100565.22;4975586;28;20422;-43
2023/04/22 09:47:12;;;;;;;7.78;7.07;;;;;;;14.46;nan;100564.03;4975641;28;20031;-46
2023/04/22 09:49:37;;;;;;;8.35;7.60;;;;;;;14.23;nan;100533.44;4975495;28;20042;-42
2023/04/22 09:52:03;;;;;;;7.30;6.60;;;;;;;14.27;nan;100535.00;4958107;28;20031;-41
2023/04/22 09:54:28;;;;;;;7.13;6.43;;;;;;;14.48;nan;100586.84;4975363;28;20042;-40
2023/04/22 09:56:54;;;;;;;7.47;6.78;;;;;;;14.67;nan;100541.72;4974561;28;20081;-40
2023/04/22 09:59:23;;;;;;;7.15;6.55;;;;;;;15.46;nan;100591.19;4957313;28;20385;-39
2023/04/22 10:01:50;;;;;;;8.05;7.38;;;;;;;16.00;nan;100589.84;4957981;28;20042;-41
2023/04/22 10:04:20;;;;;;;7.47;6.78;;;;;;;16.25;nan;100533.50;4975301;28;20474;-40
2023/04/22 10:06:46;;;;;;;7.07;6.47;;;;;;;17.54;nan;100597.16;4958481;28;20390;-42
2023/04/22 10:09:12;;;;;;;7.20;6.60;;;;;;;17.94;nan;100601.59;4975442;28;20035;-43
2023/04/22 10:11:39;;;;;;;7.82;7.22;;;;;;;18.21;nan;100565.13;4975110;28;20126;-45
2023/04/22 10:14:04;;;;;;;7.70;7.10;;;;;;;18.55;nan;100614.31;4957147;28;20446;-40
2023/04/22 10:16:31;;;;;;;7.65;6.95;;;;;;;18.21;nan;100605.09;4957438;28;20097;-40
2023/04/22 10:18:58;;;;;;;7.85;7.25;;;;;;;18.04;nan;100608.00;4957835;28;20085;-44
2023/04/22 10:21:25;;;;;;;8.73;7.95;;;;;;;17.88;nan;100604.66;4973746;28;20081;-42
2023/04/22 10:23:51;;;;;;;9.15;8.35;;;;;;;17.59;nan;100595.06;4975176;28;20035;-43
2023/04/22 10:26:38;;;;;;;9.02;8.23;;;;;;;17.15;nan;100601.41;4941658;28;20402;-40
2023/04/22 10:29:09;;;;;;;9.82;8.93;;;;;;;16.62;nan;100591.44;4974030;28;20030;-48
2023/04/22 10:31:37;;;;;;;10.98;9.85;;;;;;;16.00;nan;100589.00;4999326;28;20060;-42
2023/04/22 10:34:12;;;;;;;12.23;11.13;;;;;;;15.23;nan;100527.13;5001967;28;20096;-40
2023/04/22 10:37:05;;;;;;;12.27;11.07;;;;;;;14.87;nan;100583.03;4976819;28;20254;-42
2023/04/22 10:39:31;;;;;;;11.10;10.20;;;;;;;14.64;nan;100584.25;4976004;28;20030;-44
2023/04/22 10:42:06;;;;;;;11.55;10.55;;;;;;;14.30;nan;100529.50;4974659;28;20088;-41
2023/04/22 10:44:59;;;;;;;11.50;10.45;;;;;;;14.52;nan;100590.19;4961933;28;20500;-42
2023/04/22 10:47:29;;;;;;;10.43;9.52;;;;;;;13.90;nan;100543.09;4986774;28;20128;-44
2023/04/22 10:50:09;;;;;;;13.43;12.13;;;;;;;14.22;nan;100602.31;4976662;28;20101;-41
2023/04/22 10:52:35;;;;;;;12.40;11.30;;;;;;;14.21;nan;100598.84;4993764;28;20038;-41
2023/04/22 10:55:00;;;;;;;13.48;12.10;;;;;;;13.98;nan;100578.00;4993048;28;20440;-43
2023/04/22 10:57:39;;;;;;;13.70;12.40;;;;;;;13.89;nan;100586.38;4975408;28;20042;-43
2023/04/22 11:00:26;;;;;;;14.50;13.20;;;;;;;13.78;nan;100581.59;4992803;28;20033;-41
2023/04/22 11:03:12;;;;;;;14.38;13.10;;;;;;;13.75;nan;100573.81;4993488;28;20030;-43
2023/04/22 11:05:38;;;;;;;16.17;14.57;;;;;;;13.70;nan;100575.84;4975505;28;20105;-42
2023/04/22 11:08:13;;;;;;;15.73;14.13;;;;;;;13.67;nan;100586.56;4975357;28;20116;-42
2023/04/22 11:10:41;;;;;;;15.77;14.25;;;;;;;13.56;nan;100574.81;4993622;28;20041;-41
2023/04/22 11:13:18;;;;;;;18.77;16.88;;;;;;;13.36;nan;100549.34;4993446;28;20493;-43
2023/04/22 11:15:45;;;;;;;20.85;18.70;;;;;;;13.15;nan;100553.00;4975954;28;20042;-42
2023/04/22 11:18:22;;;;;;;21.75;19.48;;;;;;;12.66;nan;100523.56;4991630;28;20026;-41
2023/04/22 11:20:48;;;;;;;22.15;19.95;;;;;;;12.12;nan;100504.91;4975779;28;20034;-43
2023/04/22 11:23:21;;;;;;;23.83;21.33;;;;;;;12.18;nan;100509.91;4993326;28;20034;-39
2023/04/22 11:25:46;;;;;;;27.67;24.70;;;;;;;12.42;nan;100577.47;4993156;28;20046;-40